Time;durP1;ratioP1;P1;durP2;ratioP2;P2;SDS_P1;SDS_P2;PMS_P1;PMS_P2;Temp;Humidity;BMP_temperature;BMP_pressure;BME280_temperature;BME280_humidity;BME280_pressure;Samples;Min_cycle;Max_cycle;Signal;HPM_P1;HPM_P2
2022/07/31 00:00:20;;;;;;;8.50;6.85;;;17.60;99.90;;;;;;5026256;28;20329;-69
2022/07/31 00:02:46;;;;;;;8.03;7.20;;;17.60;99.90;;;;;;5025824;28;20030;-69
2022/07/31 00:05:12;;;;;;;9.57;7.27;;;17.60;99.90;;;;;;5025767;28;20021;-69
2022/07/31 00:07:38;;;;;;;8.17;6.97;;;17.60;99.90;;;;;;5025931;28;20057;-69
2022/07/31 00:10:04;;;;;;;12.27;8.57;;;17.50;99.90;;;;;;5024902;28;20104;-69
2022/07/31 00:12:30;;;;;;;10.65;8.85;;;17.50;99.90;;;;;;5026122;28;20076;-69
2022/07/31 00:14:56;;;;;;;15.20;8.30;;;17.50;99.90;;;;;;5025812;28;20026;-69
2022/07/31 00:17:21;;;;;;;9.37;8.00;;;17.50;99.90;;;;;;5025933;28;20033;-69
2022/07/31 00:19:47;;;;;;;9.47;8.30;;;17.50;99.90;;;;;;5025430;28;20037;-70
2022/07/31 00:22:13;;;;;;;10.63;9.00;;;17.70;99.90;;;;;;5025728;28;20050;-70
2022/07/31 00:24:39;;;;;;;9.47;8.47;;;17.40;99.90;;;;;;5025599;28;20022;-69
2022/07/31 00:27:04;;;;;;;11.63;9.53;;;17.40;99.90;;;;;;5025525;28;20317;-69
2022/07/31 00:29:30;;;;;;;12.83;9.70;;;17.30;99.90;;;;;;5025542;28;20053;-69
2022/07/31 00:31:56;;;;;;;9.60;8.60;;;17.30;99.90;;;;;;5025591;28;20030;-69
2022/07/31 00:34:22;;;;;;;13.40;9.37;;;17.20;99.90;;;;;;5024555;28;20096;-68
2022/07/31 00:36:48;;;;;;;12.40;9.30;;;17.30;99.90;;;;;;5025410;28;20041;-68
2022/07/31 00:39:14;;;;;;;9.73;8.60;;;17.20;99.90;;;;;;5025371;28;20198;-69
2022/07/31 00:41:42;;;;;;;9.73;8.73;;;17.20;99.90;;;;;;5025617;28;20021;-69
2022/07/31 00:44:12;;;;;;;10.02;8.90;;;17.20;99.90;;;;;;5024226;28;20287;-69
2022/07/31 00:46:38;;;;;;;9.82;8.75;;;17.20;99.90;;;;;;5025251;28;20033;-70
2022/07/31 00:49:06;;;;;;;9.88;7.90;;;17.10;99.90;;;;;;5025036;28;20026;-70
2022/07/31 00:51:32;;;;;;;9.82;7.82;;;17.10;99.90;;;;;;5025351;28;20030;-71
2022/07/31 00:53:58;;;;;;;10.13;8.17;;;17.10;99.90;;;;;;5024897;28;20053;-70
2022/07/31 00:56:24;;;;;;;11.68;8.13;;;17.10;99.90;;;;;;5025012;28;20025;-71
2022/07/31 00:58:50;;;;;;;8.02;7.22;;;17.10;99.90;;;;;;5024750;28;20097;-70
2022/07/31 01:01:16;;;;;;;10.73;7.63;;;17.00;99.90;;;;;;5024796;28;20025;-70
2022/07/31 01:03:42;;;;;;;9.87;8.00;;;17.00;99.90;;;;;;5023605;28;20472;-69
2022/07/31 01:06:08;;;;;;;10.03;8.10;;;17.30;99.90;;;;;;5024659;28;20060;-70
2022/07/31 01:08:34;;;;;;;9.70;8.23;;;16.90;99.90;;;;;;5024649;28;20037;-70
2022/07/31 01:11:14;;;;;;;8.75;7.63;;;16.90;99.90;;;;;;5023479;28;20056;-70
2022/07/31 01:13:46;;;;;;;10.02;8.38;;;16.90;99.90;;;;;;5024119;28;20228;-70
2022/07/31 01:16:12;;;;;;;8.40;7.30;;;16.90;99.90;;;;;;5023395;28;20095;-70
2022/07/31 01:18:37;;;;;;;12.33;8.53;;;16.90;99.90;;;;;;5023210;28;20057;-70
2022/07/31 01:21:06;;;;;;;8.63;7.73;;;16.80;99.90;;;;;;5023655;28;20037;-70
2022/07/31 01:24:03;;;;;;;9.60;8.60;;;16.90;99.90;;;;;;5022997;28;20363;-70
2022/07/31 01:27:03;;;;;;;7.68;6.97;;;16.90;99.90;;;;;;5023390;28;20093;-70
2022/07/31 01:29:41;;;;;;;9.55;7.38;;;15.50;99.90;;;;;;5023250;28;20018;-70
2022/07/31 01:32:16;;;;;;;9.00;7.35;;;16.60;99.90;;;;;;5023313;28;20028;-70
2022/07/31 01:34:51;;;;;;;8.73;7.43;;;16.60;99.90;;;;;;5005839;28;20041;-69
2022/07/31 01:37:27;;;;;;;8.35;7.38;;;16.60;99.90;;;;;;5024149;28;20218;-69
2022/07/31 01:40:14;;;;;;;13.77;7.65;;;16.60;99.90;;;;;;5023200;28;20468;-70
2022/07/31 01:42:42;;;;;;;8.20;6.82;;;16.60;99.90;;;;;;5022768;28;20133;-70
2022/07/31 01:45:09;;;;;;;8.95;6.95;;;16.60;99.90;;;;;;5022058;28;20025;-70
2022/07/31 01:47:35;;;;;;;8.00;6.80;;;16.60;99.90;;;;;;5006590;28;20394;-70
2022/07/31 01:50:01;;;;;;;7.77;6.97;;;16.60;99.90;;;;;;5006260;28;20034;-70
2022/07/31 01:52:28;;;;;;;8.70;7.50;;;16.60;99.90;;;;;;5022734;28;20029;-70
2022/07/31 01:54:54;;;;;;;;;;;16.60;99.90;;;;;;5022982;28;20260;-68
2022/07/31 01:57:22;;;;;;;7.97;7.13;;;16.60;99.90;;;;;;5006240;28;19945;-68
2022/07/31 01:59:47;;;;;;;8.27;7.40;;;16.60;99.90;;;;;;5022418;28;20022;-69
2022/07/31 02:02:14;;;;;;;8.97;7.33;;;16.60;99.90;;;;;;5022532;28;20032;-68
2022/07/31 02:04:40;;;;;;;8.07;7.10;;;16.50;99.90;;;;;;5022356;28;20072;-68
2022/07/31 02:07:07;;;;;;;10.17;7.43;;;16.60;99.90;;;;;;5022292;28;20260;-68
2022/07/31 02:09:33;;;;;;;8.38;7.07;;;16.50;99.90;;;;;;5022001;28;20363;-68
2022/07/31 02:11:59;;;;;;;8.60;7.32;;;16.50;99.90;;;;;;5006264;28;20084;-69
2022/07/31 02:14:25;;;;;;;12.00;8.10;;;16.50;99.90;;;;;;5005792;28;20033;-68
2022/07/31 02:16:50;;;;;;;9.23;7.67;;;16.40;99.90;;;;;;5006056;28;20089;-68
2022/07/31 02:19:16;;;;;;;9.57;7.80;;;16.40;99.90;;;;;;5023192;28;20045;-68
2022/07/31 02:21:42;;;;;;;8.77;7.10;;;16.30;99.90;;;;;;5005805;28;20022;-68
2022/07/31 02:24:08;;;;;;;8.63;6.83;;;16.30;99.90;;;;;;5022984;28;20025;-69
2022/07/31 02:26:34;;;;;;;9.17;7.67;;;16.10;99.90;;;;;;5023280;28;20018;-68
2022/07/31 02:29:00;;;;;;;9.60;7.10;;;16.10;99.90;;;;;;5021930;28;20026;-68
2022/07/31 02:31:25;;;;;;;8.77;7.87;;;16.10;99.90;;;;;;5005818;28;20040;-68
2022/07/31 02:33:51;;;;;;;7.30;6.33;;;16.00;99.90;;;;;;5021758;28;20056;-68
2022/07/31 02:36:17;;;;;;;8.73;6.80;;;16.00;99.90;;;;;;5021200;28;20093;-69
2022/07/31 02:38:43;;;;;;;7.60;6.80;;;15.90;99.90;;;;;;5021777;28;20041;-69
2022/07/31 02:41:10;;;;;;;9.30;8.03;;;15.90;99.90;;;;;;5022005;28;20026;-68
2022/07/31 02:43:36;;;;;;;8.68;7.53;;;15.90;99.90;;;;;;5021601;28;20034;-69
2022/07/31 02:46:02;;;;;;;8.73;7.13;;;15.90;99.90;;;;;;5004953;28;20025;-68
2022/07/31 02:48:28;;;;;;;9.40;7.45;;;15.90;99.90;;;;;;5021758;28;20080;-69
2022/07/31 02:50:54;;;;;;;9.67;7.73;;;15.80;99.90;;;;;;5021808;28;20028;-69
2022/07/31 02:53:20;;;;;;;9.23;7.63;;;15.80;99.90;;;;;;5021385;28;20037;-68
2022/07/31 02:55:46;;;;;;;9.63;8.63;;;15.80;99.90;;;;;;5022706;28;20033;-69
2022/07/31 02:58:13;;;;;;;10.30;8.37;;;15.80;99.90;;;;;;5021396;28;20567;-69
2022/07/31 03:00:40;;;;;;;11.63;9.32;;;15.80;99.90;;;;;;5005213;28;20092;-69
2022/07/31 03:03:05;;;;;;;9.97;8.07;;;15.80;99.90;;;;;;5021492;28;20026;-68
2022/07/31 03:05:31;;;;;;;10.37;8.77;;;15.80;99.90;;;;;;5022633;28;20021;-68
2022/07/31 03:07:58;;;;;;;13.17;9.03;;;15.70;99.90;;;;;;5022620;28;20257;-69
2022/07/31 03:10:23;;;;;;;11.07;8.82;;;15.70;99.90;;;;;;5022640;28;20014;-69
2022/07/31 03:12:51;;;;;;;12.87;10.13;;;15.80;99.90;;;;;;5022342;28;20100;-69
2022/07/31 03:15:18;;;;;;;11.07;9.13;;;15.70;99.90;;;;;;5021059;28;20017;-68
2022/07/31 03:17:44;;;;;;;10.57;9.05;;;15.80;99.90;;;;;;5021315;28;20022;-68
2022/07/31 03:20:11;;;;;;;10.23;8.83;;;15.80;99.90;;;;;;5021208;28;20046;-69
2022/07/31 03:22:38;;;;;;;12.80;9.20;;;15.80;99.90;;;;;;5020602;28;20376;-69
2022/07/31 03:25:05;;;;;;;9.27;8.30;;;15.70;99.90;;;;;;5021155;28;20056;-68
2022/07/31 03:27:30;;;;;;;10.35;8.52;;;15.60;99.90;;;;;;5021204;28;20033;-69
2022/07/31 03:29:56;;;;;;;12.50;8.70;;;15.60;99.90;;;;;;5021023;28;20030;-69
2022/07/31 03:32:22;;;;;;;8.83;7.93;;;15.60;99.90;;;;;;5022072;28;20022;-69
2022/07/31 03:34:48;;;;;;;13.53;8.80;;;15.60;99.90;;;;;;5021203;28;20141;-72
2022/07/31 03:37:13;;;;;;;15.20;10.30;;;15.60;99.90;;;;;;5022010;28;20025;-69
2022/07/31 03:39:40;;;;;;;9.10;7.80;;;15.60;99.90;;;;;;5021118;28;20025;-69
2022/07/31 03:42:09;;;;;;;9.95;8.95;;;15.50;99.90;;;;;;5021411;28;20220;-69
2022/07/31 03:44:34;;;;;;;9.45;7.95;;;15.70;99.90;;;;;;5021075;28;20098;-69
2022/07/31 03:47:00;;;;;;;9.47;8.30;;;15.60;99.90;;;;;;5004657;28;20202;-70
2022/07/31 03:49:26;;;;;;;9.30;7.90;;;15.60;99.90;;;;;;5022187;28;20225;-70
2022/07/31 03:51:52;;;;;;;9.87;8.00;;;15.60;99.90;;;;;;5020913;28;20374;-70
2022/07/31 03:54:18;;;;;;;9.70;8.10;;;15.60;99.90;;;;;;5021813;28;20017;-70
2022/07/31 03:56:47;;;;;;;11.67;7.90;;;15.50;99.90;;;;;;5022269;28;20052;-70
2022/07/31 03:59:16;;;;;;;9.25;7.65;;;15.50;99.90;;;;;;5020924;28;20041;-69
2022/07/31 04:01:45;;;;;;;9.57;7.45;;;15.50;99.90;;;;;;5022148;28;20025;-70
2022/07/31 04:04:12;;;;;;;8.63;7.28;;;15.50;99.90;;;;;;5020813;28;20229;-70
2022/07/31 04:06:39;;;;;;;7.82;6.95;;;15.60;99.90;;;;;;5021876;28;20024;-70
2022/07/31 04:09:05;;;;;;;;;;;15.50;99.90;;;;;;5021325;28;20033;-70
2022/07/31 04:11:30;;;;;;;8.15;6.82;;;15.50;99.90;;;;;;5022065;28;19913;-70
2022/07/31 04:13:56;;;;;;;9.07;7.10;;;15.60;99.90;;;;;;5021747;28;20101;-70
2022/07/31 04:16:22;;;;;;;7.53;6.83;;;15.60;99.90;;;;;;5022045;28;20367;-70
2022/07/31 04:18:48;;;;;;;8.83;7.07;;;15.60;99.90;;;;;;5021794;28;20034;-70
2022/07/31 04:21:14;;;;;;;8.07;7.00;;;15.60;99.90;;;;;;5021697;28;20061;-69
2022/07/31 04:23:39;;;;;;;7.70;6.50;;;15.60;99.90;;;;;;5021592;28;20022;-70
2022/07/31 04:26:05;;;;;;;9.50;7.37;;;15.60;99.90;;;;;;5021896;28;20026;-69
2022/07/31 04:28:32;;;;;;;7.43;6.73;;;15.60;99.90;;;;;;5021803;28;20030;-69
2022/07/31 04:30:58;;;;;;;8.63;7.72;;;15.60;99.90;;;;;;5021835;28;20052;-69
2022/07/31 04:33:23;;;;;;;7.23;6.53;;;15.70;99.90;;;;;;5023760;28;20336;-69
2022/07/31 04:35:50;;;;;;;8.60;6.10;;;15.70;99.90;;;;;;5024573;28;20029;-69
2022/07/31 04:38:16;;;;;;;9.98;8.25;;;15.80;99.90;;;;;;5024113;28;20037;-70
2022/07/31 04:40:42;;;;;;;8.23;7.43;;;15.90;99.90;;;;;;5025316;28;20088;-70
2022/07/31 04:43:08;;;;;;;10.15;8.13;;;15.90;99.90;;;;;;5025085;28;20076;-70
2022/07/31 04:45:33;;;;;;;9.37;8.13;;;16.00;99.90;;;;;;5025208;28;20033;-70
2022/07/31 04:47:59;;;;;;;12.10;8.63;;;16.10;99.90;;;;;;5025141;28;20018;-69
2022/07/31 04:50:25;;;;;;;12.23;9.20;;;16.10;99.90;;;;;;5024878;28;20076;-69
2022/07/31 04:52:51;;;;;;;11.53;9.13;;;16.10;99.90;;;;;;5024767;28;20026;-69
2022/07/31 04:55:16;;;;;;;11.17;9.30;;;16.20;99.90;;;;;;5025048;28;20029;-69
2022/07/31 04:57:42;;;;;;;10.73;8.97;;;16.20;99.90;;;;;;5024935;28;20028;-69
2022/07/31 05:00:09;;;;;;;9.73;8.73;;;16.30;99.90;;;;;;5024888;28;20044;-69
2022/07/31 05:02:36;;;;;;;10.65;8.82;;;16.30;99.90;;;;;;5024862;28;20217;-69
2022/07/31 05:05:02;;;;;;;11.82;9.40;;;16.40;99.90;;;;;;5023359;28;20022;-69
2022/07/31 05:07:27;;;;;;;10.57;9.03;;;16.40;99.90;;;;;;5024831;28;20045;-69
2022/07/31 05:09:53;;;;;;;14.60;9.33;;;16.40;99.90;;;;;;5024861;28;20265;-70
2022/07/31 05:12:19;;;;;;;10.07;8.30;;;16.40;99.90;;;;;;5024875;28;20021;-69
2022/07/31 05:14:44;;;;;;;12.97;9.80;;;16.40;99.90;;;;;;5024614;28;20097;-70
2022/07/31 05:17:10;;;;;;;11.77;9.77;;;16.40;99.90;;;;;;5024623;28;20030;-69
2022/07/31 05:19:37;;;;;;;14.53;11.00;;;16.40;99.90;;;;;;5024642;28;20064;-69
2022/07/31 05:22:03;;;;;;;14.25;8.93;;;16.40;99.90;;;;;;5024409;28;20097;-69
2022/07/31 05:24:29;;;;;;;9.95;8.50;;;16.40;99.90;;;;;;5024563;28;20026;-69
2022/07/31 05:26:55;;;;;;;11.90;9.17;;;16.40;99.90;;;;;;5024484;28;20025;-70
2022/07/31 05:29:21;;;;;;;12.87;10.53;;;16.50;99.90;;;;;;5024434;28;20033;-69
2022/07/31 05:31:46;;;;;;;12.37;10.27;;;16.60;99.90;;;;;;5024396;28;20018;-69
2022/07/31 05:34:12;;;;;;;10.80;9.13;;;16.60;99.90;;;;;;5024080;28;20022;-69
2022/07/31 05:36:38;;;;;;;12.20;10.43;;;16.60;99.90;;;;;;5023519;28;20022;-69
2022/07/31 05:39:04;;;;;;;11.73;9.80;;;16.60;99.90;;;;;;5024064;28;20064;-69
2022/07/31 05:41:32;;;;;;;11.40;8.90;;;16.70;99.90;;;;;;5024313;28;20022;-69
2022/07/31 05:43:58;;;;;;;13.55;10.73;;;16.80;99.90;;;;;;5022977;28;20018;-69
2022/07/31 05:46:23;;;;;;;11.60;9.90;;;16.90;99.90;;;;;;5024066;28;20029;-69
2022/07/31 05:48:49;;;;;;;11.80;9.37;;;16.90;99.90;;;;;;5024011;28;20030;-69
2022/07/31 05:51:15;;;;;;;10.20;9.13;;;17.00;99.90;;;;;;5023801;28;20029;-69
2022/07/31 05:53:41;;;;;;;11.67;9.70;;;17.00;99.90;;;;;;5023680;28;20021;-69
2022/07/31 05:56:07;;;;;;;10.60;9.48;;;17.10;99.90;;;;;;5023956;28;20026;-69
2022/07/31 05:58:33;;;;;;;11.87;9.10;;;17.20;99.90;;;;;;5023710;28;20214;-69
2022/07/31 06:01:02;;;;;;;13.30;10.47;;;17.30;99.90;;;;;;5023924;28;20267;-69
2022/07/31 06:03:28;;;;;;;19.52;11.00;;;17.40;99.90;;;;;;5022402;28;20021;-70
2022/07/31 06:05:55;;;;;;;12.05;10.13;;;17.40;99.90;;;;;;5022243;28;20028;-69
2022/07/31 06:08:21;;;;;;;15.00;11.13;;;17.40;99.90;;;;;;4994759;28;20057;-70
2022/07/31 06:10:46;;;;;;;13.73;11.37;;;17.40;99.90;;;;;;5011385;28;20018;-70
2022/07/31 06:13:13;;;;;;;11.70;9.80;;;17.40;99.90;;;;;;5013438;28;20602;-69
2022/07/31 06:15:40;;;;;;;11.52;10.23;;;17.40;99.90;;;;;;5010737;28;20018;-71
2022/07/31 06:18:06;;;;;;;13.63;10.43;;;17.40;99.90;;;;;;5002486;28;20120;-69
2022/07/31 06:20:32;;;;;;;13.17;10.13;;;17.40;99.90;;;;;;5003627;28;20325;-69
2022/07/31 06:22:57;;;;;;;11.20;10.10;;;17.50;99.90;;;;;;5002420;28;20022;-69
2022/07/31 06:25:23;;;;;;;11.80;10.47;;;17.50;99.90;;;;;;5003646;28;20226;-69
2022/07/31 06:27:49;;;;;;;16.53;10.27;;;17.50;99.90;;;;;;5004610;28;20026;-69
2022/07/31 06:30:15;;;;;;;12.40;10.10;;;17.50;99.90;;;;;;5004631;28;20041;-69
2022/07/31 06:32:41;;;;;;;10.40;9.17;;;17.60;99.90;;;;;;5003977;28;20082;-69
2022/07/31 06:35:07;;;;;;;13.40;10.60;;;17.60;99.90;;;;;;5008429;28;20026;-69
2022/07/31 06:37:33;;;;;;;9.18;8.27;;;17.60;99.90;;;;;;5023520;28;20026;-69
2022/07/31 06:39:59;;;;;;;11.02;9.35;;;17.70;99.90;;;;;;5019425;28;20072;-70
2022/07/31 06:42:25;;;;;;;15.07;9.80;;;17.80;99.90;;;;;;5016497;28;20301;-70
2022/07/31 06:44:51;;;;;;;12.37;9.20;;;17.90;99.90;;;;;;5012121;28;20030;-70
2022/07/31 06:47:22;;;;;;;9.18;8.25;;;17.90;99.90;;;;;;5013587;28;20101;-69
2022/07/31 06:49:48;;;;;;;11.60;9.80;;;18.00;99.90;;;;;;5007486;28;20093;-69
2022/07/31 06:52:14;;;;;;;10.70;9.27;;;18.10;99.90;;;;;;5009748;28;20101;-69
2022/07/31 06:54:41;;;;;;;14.15;9.18;;;18.20;99.90;;;;;;5010853;28;20033;-69
2022/07/31 06:57:07;;;;;;;;;;;18.20;99.90;;;;;;5010978;28;20026;-69
2022/07/31 06:59:33;;;;;;;10.63;8.68;;;18.30;99.90;;;;;;5018760;28;20212;-69
2022/07/31 07:01:58;;;;;;;12.73;8.57;;;18.40;99.90;;;;;;5018528;28;20221;-70
2022/07/31 07:04:24;;;;;;;10.73;9.30;;;18.40;99.90;;;;;;5016876;28;20026;-70
2022/07/31 07:06:50;;;;;;;10.53;8.87;;;18.40;99.90;;;;;;5022084;28;20347;-70
2022/07/31 07:09:16;;;;;;;9.80;8.47;;;18.40;99.90;;;;;;5014654;28;20018;-69
2022/07/31 07:11:41;;;;;;;13.53;9.40;;;18.50;99.90;;;;;;5022265;28;20024;-69
2022/07/31 07:14:07;;;;;;;10.97;9.30;;;18.60;99.90;;;;;;5022305;28;20022;-70
2022/07/31 07:16:33;;;;;;;12.60;10.83;;;18.70;99.90;;;;;;5022463;28;20129;-69
2022/07/31 07:18:58;;;;;;;11.23;8.87;;;18.70;99.90;;;;;;5017552;28;20032;-69
2022/07/31 07:21:25;;;;;;;10.47;9.43;;;18.80;99.90;;;;;;5013922;28;20018;-69
2022/07/31 07:23:50;;;;;;;11.30;9.13;;;18.80;99.90;;;;;;5013883;28;20023;-69
2022/07/31 07:26:17;;;;;;;17.43;10.17;;;18.80;99.90;;;;;;5022366;28;20198;-70
2022/07/31 07:28:43;;;;;;;;;;;18.80;99.90;;;;;;5022310;28;20117;-70
2022/07/31 07:31:09;;;;;;;9.95;8.95;;;18.90;99.90;;;;;;5015247;28;19909;-70
2022/07/31 07:33:35;;;;;;;10.03;9.03;;;18.90;99.90;;;;;;5030900;28;20061;-70
2022/07/31 07:36:01;;;;;;;;;;;19.00;99.90;;;;;;5020172;28;20076;-70
2022/07/31 07:38:27;;;;;;;12.10;7.97;;;19.00;99.90;;;;;;5018139;28;20120;-69
2022/07/31 07:40:52;;;;;;;9.43;7.47;;;19.10;99.90;;;;;;5013903;28;20033;-70
2022/07/31 07:43:18;;;;;;;14.37;9.17;;;19.10;99.90;;;;;;5021881;28;20032;-70
2022/07/31 07:45:44;;;;;;;12.07;9.13;;;19.00;99.90;;;;;;5013749;28;20033;-69
2022/07/31 07:48:10;;;;;;;12.60;7.83;;;19.00;99.90;;;;;;5030739;28;20341;-71
2022/07/31 07:50:35;;;;;;;11.60;8.87;;;19.10;99.90;;;;;;5017450;28;20034;-70
2022/07/31 07:53:01;;;;;;;9.07;7.97;;;19.10;99.90;;;;;;5015092;28;20018;-71
2022/07/31 07:55:27;;;;;;;7.90;6.80;;;19.20;99.90;;;;;;5012658;28;20029;-70
2022/07/31 07:57:53;;;;;;;8.47;6.97;;;19.20;99.90;;;;;;5021271;28;20029;-70
2022/07/31 08:00:19;;;;;;;8.93;6.77;;;19.30;99.90;;;;;;5005678;28;20333;-68
2022/07/31 08:02:45;;;;;;;8.57;7.00;;;19.40;99.90;;;;;;5018543;28;20033;-70
2022/07/31 08:05:11;;;;;;;8.00;7.20;;;19.40;99.90;;;;;;5020803;28;20017;-72
2022/07/31 08:07:37;;;;;;;11.00;6.47;;;19.60;99.90;;;;;;5018632;28;20056;-72
2022/07/31 08:10:04;;;;;;;7.13;6.43;;;19.70;99.90;;;;;;4997677;28;20029;-72
2022/07/31 08:12:30;;;;;;;7.47;5.95;;;19.80;99.90;;;;;;5021277;28;20104;-72
2022/07/31 08:14:56;;;;;;;6.67;5.97;;;19.90;99.90;;;;;;5018554;28;20030;-69
2022/07/31 08:17:21;;;;;;;7.03;6.20;;;20.10;99.90;;;;;;5022767;28;20026;-69
2022/07/31 08:19:47;;;;;;;6.00;5.40;;;20.10;99.90;;;;;;5025672;28;20080;-69
2022/07/31 08:22:13;;;;;;;13.10;6.50;;;20.30;99.90;;;;;;5023884;28;20088;-69
2022/07/31 08:24:39;;;;;;;7.07;5.70;;;20.40;99.90;;;;;;5016175;28;20040;-69
2022/07/31 08:27:23;;;;;;;6.60;5.97;;;20.50;99.90;;;;;;5017237;28;20220;-69
2022/07/31 08:29:49;;;;;;;7.65;5.80;;;20.70;99.90;;;;;;5018521;28;20029;-69
2022/07/31 08:32:16;;;;;;;7.90;5.63;;;20.90;99.90;;;;;;5019166;28;20030;-69
2022/07/31 08:34:42;;;;;;;6.82;5.22;;;21.10;99.90;;;;;;5016125;28;20040;-69
2022/07/31 08:37:08;;;;;;;7.45;5.85;;;21.30;99.90;;;;;;5020797;28;20053;-69
2022/07/31 08:39:33;;;;;;;6.00;5.00;;;21.50;99.90;;;;;;5008927;28;20037;-68
2022/07/31 08:42:03;;;;;;;5.72;5.13;;;21.60;99.90;;;;;;5023772;28;20224;-69
2022/07/31 08:44:29;;;;;;;6.45;4.60;;;21.70;99.90;;;;;;5014306;28;20100;-72
2022/07/31 08:46:55;;;;;;;5.40;4.30;;;21.80;99.90;;;;;;5020040;28;20021;-71
2022/07/31 08:49:21;;;;;;;6.37;4.60;;;21.80;99.90;;;;;;5020746;28;20315;-72
2022/07/31 08:51:46;;;;;;;5.07;4.63;;;21.90;99.90;;;;;;5007067;28;20252;-73
2022/07/31 08:54:13;;;;;;;5.85;4.18;;;21.80;99.90;;;;;;4990821;28;20021;-72
2022/07/31 08:56:39;;;;;;;6.77;4.90;;;21.90;99.90;;;;;;5023962;28;20038;-72
2022/07/31 08:59:05;;;;;;;5.57;4.45;;;21.90;99.90;;;;;;5023876;28;20026;-71
2022/07/31 09:01:35;;;;;;;8.60;4.80;;;21.90;99.90;;;;;;5023549;28;20033;-70
2022/07/31 09:04:01;;;;;;;13.75;5.10;;;22.00;99.90;;;;;;5024682;28;20355;-71
2022/07/31 09:06:27;;;;;;;8.48;4.78;;;22.00;99.90;;;;;;5024588;28;20037;-72
2022/07/31 09:08:55;;;;;;;7.37;5.37;;;22.00;99.90;;;;;;5023300;28;20097;-69
2022/07/31 09:11:21;;;;;;;8.90;5.15;;;22.10;99.90;;;;;;5024897;28;20026;-70
2022/07/31 09:13:58;;;;;;;7.05;4.65;;;22.10;99.90;;;;;;5023949;28;20022;-70
2022/07/31 09:16:24;;;;;;;7.72;4.50;;;22.20;99.90;;;;;;5025415;28;20026;-71
2022/07/31 09:18:56;;;;;;;4.05;3.65;;;22.20;99.90;;;;;;5023917;28;20026;-72
2022/07/31 09:21:22;;;;;;;9.15;4.93;;;22.20;99.90;;;;;;5025346;28;20022;-74
2022/07/31 09:23:48;;;;;;;6.38;4.65;;;22.30;99.90;;;;;;5024146;28;20084;-74
2022/07/31 09:26:14;;;;;;;6.93;4.83;;;22.30;99.90;;;;;;5024048;28;20029;-74
2022/07/31 09:28:50;;;;;;;7.50;4.65;;;22.40;99.90;;;;;;5024254;28;20026;-74
2022/07/31 09:31:16;;;;;;;7.03;4.60;;;22.50;99.90;;;;;;5024872;28;20053;-74
2022/07/31 09:33:43;;;;;;;4.75;4.30;;;22.50;99.90;;;;;;5024827;28;20037;-75
2022/07/31 09:36:08;;;;;;;6.35;4.57;;;22.60;99.90;;;;;;5023149;28;20339;-74
2022/07/31 09:38:41;;;;;;;8.40;5.73;;;22.60;99.90;;;;;;5024922;28;20057;-77
2022/07/31 09:41:12;;;;;;;5.38;4.47;;;22.50;99.90;;;;;;5025374;28;20045;-74
2022/07/31 09:43:38;;;;;;;6.18;4.40;;;22.60;99.90;;;;;;5023434;28;20213;-76
2022/07/31 09:46:05;;;;;;;5.25;4.40;;;22.60;99.90;;;;;;5009847;28;20053;-74
2022/07/31 09:48:31;;;;;;;;;;;22.60;99.90;;;;;;5006953;28;20392;-75
2022/07/31 09:50:59;;;;;;;5.20;4.70;;;22.60;99.90;;;;;;5022600;28;19905;-74
2022/07/31 09:53:25;;;;;;;8.55;4.72;;;22.70;99.90;;;;;;5024388;28;20030;-75
2022/07/31 09:55:51;;;;;;;4.43;4.03;;;22.80;99.90;;;;;;5023405;28;20420;-78
2022/07/31 09:58:17;;;;;;;28.85;10.77;;;22.80;99.90;;;;;;5022836;28;20156;-73
2022/07/31 10:00:43;;;;;;;6.93;4.50;;;22.90;99.90;;;;;;5019034;28;20038;-73
2022/07/31 10:03:09;;;;;;;10.20;4.28;;;23.00;99.90;;;;;;5010625;28;20026;-73
2022/07/31 10:05:36;;;;;;;5.47;4.13;;;23.10;99.90;;;;;;5017219;28;20036;-72
2022/07/31 10:08:03;;;;;;;5.85;3.63;;;23.30;99.90;;;;;;5014290;28;20022;-72
2022/07/31 10:10:29;;;;;;;7.40;3.85;;;23.40;99.90;;;;;;4979787;28;20028;-72
2022/07/31 10:12:54;;;;;;;5.00;3.35;;;23.50;99.90;;;;;;5022224;28;20320;-72
2022/07/31 10:15:20;;;;;;;4.18;3.75;;;23.60;99.90;;;;;;5016857;28;20107;-72
2022/07/31 10:17:48;;;;;;;6.70;4.10;;;23.70;99.90;;;;;;5011137;28;20061;-71
2022/07/31 10:20:20;;;;;;;3.92;3.53;;;23.80;99.90;;;;;;5003898;28;20057;-72
2022/07/31 10:22:49;;;;;;;5.22;3.53;;;23.80;99.90;;;;;;5017992;28;20018;-72
2022/07/31 10:25:28;;;;;;;3.88;3.47;;;23.90;99.90;;;;;;5007430;28;20045;-71
2022/07/31 10:27:56;;;;;;;5.00;3.75;;;23.90;99.90;;;;;;5014433;28;20021;-72
2022/07/31 10:30:22;;;;;;;4.07;2.88;;;24.00;99.90;;;;;;5005655;28;20240;-72
2022/07/31 10:32:49;;;;;;;;;;;24.20;99.90;;;;;;5013360;28;20025;-72
2022/07/31 10:35:15;;;;;;;3.47;2.60;;;24.40;98.80;;;;;;5016187;28;20232;-72
2022/07/31 10:38:06;;;;;;;4.38;3.03;;;24.60;97.20;;;;;;5020484;28;20037;-72
2022/07/31 10:40:42;;;;;;;3.78;2.42;;;24.80;95.60;;;;;;5014427;28;20049;-72
2022/07/31 10:43:46;;;;;;;4.88;3.00;;;25.00;95.40;;;;;;5019062;28;20085;-72
2022/07/31 10:46:12;;;;;;;5.85;3.08;;;25.10;99.50;;;;;;5017291;28;20026;-72
2022/07/31 10:48:49;;;;;;;4.63;2.80;;;25.10;97.40;;;;;;5015167;28;20041;-72
2022/07/31 10:51:15;;;;;;;;;;;25.10;98.60;;;;;;5012358;28;20563;-72
2022/07/31 10:53:40;;;;;;;5.00;3.40;;;25.10;93.50;;;;;;5013124;28;19927;-71
2022/07/31 10:56:11;;;;;;;5.80;3.65;;;25.10;94.40;;;;;;4996589;28;20038;-71
2022/07/31 10:58:51;;;;;;;4.55;3.03;;;25.00;96.30;;;;;;5010547;28;20029;-72
2022/07/31 11:01:17;;;;;;;4.57;2.97;;;25.00;94.60;;;;;;5013629;28;20021;-72
2022/07/31 11:03:45;;;;;;;2.63;2.42;;;25.10;92.00;;;;;;4996014;28;20265;-72
2022/07/31 11:06:12;;;;;;;4.95;2.75;;;25.10;93.40;;;;;;5007564;28;20022;-72
2022/07/31 11:08:42;;;;;;;3.92;2.47;;;25.20;94.10;;;;;;5016724;28;20237;-72
2022/07/31 11:11:08;;;;;;;3.20;2.35;;;25.30;91.60;;;;;;5022404;28;20033;-72
2022/07/31 11:13:48;;;;;;;2.95;2.53;;;25.30;92.60;;;;;;5018456;28;20033;-72
2022/07/31 11:16:14;;;;;;;8.27;4.97;;;25.40;94.00;;;;;;5011638;28;20038;-72
2022/07/31 11:19:29;;;;;;;5.93;2.85;;;25.50;94.80;;;;;;5010751;28;20030;-72
2022/07/31 11:21:56;;;;;;;4.72;2.92;;;25.60;93.10;;;;;;5012960;28;20068;-71
2022/07/31 11:24:45;;;;;;;;;;;;;;;;;;;;;
2022/07/31 11:27:11;;;;;;;4.85;2.60;;;26.00;91.90;;;;;;5016013;28;20052;-71
2022/07/31 11:29:38;;;;;;;3.03;2.05;;;26.30;91.40;;;;;;5007513;28;20147;-71
2022/07/31 11:32:04;;;;;;;5.97;2.40;;;26.50;87.60;;;;;;4998659;28;20026;-72
2022/07/31 11:34:49;;;;;;;2.75;2.20;;;26.70;84.30;;;;;;5010598;28;20036;-72
2022/07/31 11:37:23;;;;;;;4.70;2.35;;;26.90;83.80;;;;;;5019283;28;20033;-71
2022/07/31 11:39:49;;;;;;;2.65;1.90;;;27.00;86.00;;;;;;5021247;28;20034;-72
2022/07/31 11:42:16;;;;;;;2.72;2.40;;;27.10;90.30;;;;;;5021365;28;20034;-72
2022/07/31 11:44:42;;;;;;;4.95;2.67;;;27.10;76.90;;;;;;5020784;28;20014;-71
2022/07/31 11:47:08;;;;;;;8.43;1.95;;;27.00;78.50;;;;;;5022004;28;20326;-72
2022/07/31 11:49:35;;;;;;;3.08;2.53;;;27.10;84.80;;;;;;5004289;28;20095;-72
2022/07/31 11:52:03;;;;;;;2.70;1.60;;;27.30;84.80;;;;;;5020580;28;20022;-72
2022/07/31 11:54:29;;;;;;;5.00;1.90;;;27.40;72.70;;;;;;5020604;28;20044;-72
2022/07/31 11:56:55;;;;;;;3.00;1.98;;;27.50;72.80;;;;;;5005400;28;20049;-73
2022/07/31 11:59:35;;;;;;;2.90;1.70;;;27.60;71.40;;;;;;5002319;28;20046;-72
2022/07/31 12:02:10;;;;;;;2.33;1.35;;;27.70;69.90;;;;;;5017059;28;20041;-71
2022/07/31 12:04:36;;;;;;;3.00;1.40;;;27.90;66.20;;;;;;5021886;28;20044;-72
2022/07/31 12:07:05;;;;;;;2.08;1.88;;;28.00;68.50;;;;;;5020699;28;20017;-73
2022/07/31 12:09:32;;;;;;;2.40;1.60;;;28.10;65.20;;;;;;5019745;28;20040;-72
2022/07/31 12:11:58;;;;;;;3.72;1.50;;;28.10;62.70;;;;;;5013228;28;20029;-72
2022/07/31 12:14:36;;;;;;;1.73;1.60;;;28.40;60.80;;;;;;5015011;28;20375;-73
2022/07/31 12:17:03;;;;;;;1.73;1.55;;;28.40;63.40;;;;;;4990938;28;20076;-72
2022/07/31 12:19:34;;;;;;;1.63;1.45;;;28.50;64.90;;;;;;5020882;28;20033;-72
2022/07/31 12:22:00;;;;;;;3.72;1.90;;;28.50;68.50;;;;;;5021748;28;20041;-72
2022/07/31 12:24:26;;;;;;;2.33;1.65;;;28.60;69.20;;;;;;4999490;28;20034;-72
2022/07/31 12:26:59;;;;;;;1.60;1.50;;;28.60;67.50;;;;;;5001224;28;20030;-72
2022/07/31 12:29:38;;;;;;;1.88;1.65;;;28.50;69.10;;;;;;5001161;28;20038;-73
2022/07/31 12:32:05;;;;;;;2.25;1.60;;;28.70;67.60;;;;;;5001144;28;20194;-72
2022/07/31 12:34:40;;;;;;;2.88;1.70;;;28.90;68.60;;;;;;4984777;28;20337;-72
2022/07/31 12:37:09;;;;;;;2.50;1.70;;;29.00;72.20;;;;;;5018211;28;20025;-72
2022/07/31 12:39:37;;;;;;;2.80;1.80;;;29.00;65.30;;;;;;5020711;28;20029;-72
2022/07/31 12:42:03;;;;;;;3.78;1.73;;;29.10;62.90;;;;;;5020693;28;20308;-73
2022/07/31 12:44:29;;;;;;;;;;;29.10;62.10;;;;;;5021198;28;20029;-72
2022/07/31 12:46:55;;;;;;;5.75;2.08;;;29.30;64.10;;;;;;5021488;28;19951;-72